sensor_id;sensor_type;location;lat;lon;timestamp;P1;durP1;ratioP1;P2;durP2;ratioP2
85815;SDS011;76552;51.206;4.424;2024-03-29T00:00:02;8.57;;;2.00;;
85815;SDS011;76552;51.206;4.424;2024-03-29T00:00:17;8.18;;;1.88;;
85815;SDS011;76552;51.206;4.424;2024-03-29T00:00:23;7.63;;;1.70;;
85815;SDS011;76552;51.206;4.424;2024-03-29T00:00:28;7.57;;;1.73;;
85815;SDS011;76552;51.206;4.424;2024-03-29T00:00:33;7.47;;;1.63;;
85815;SDS011;76552;51.206;4.424;2024-03-29T00:00:39;7.03;;;1.60;;
85815;SDS011;76552;51.206;4.424;2024-03-29T00:00:45;6.68;;;1.50;;
85815;SDS011;76552;51.206;4.424;2024-03-29T00:00:50;6.30;;;1.50;;
85815;SDS011;76552;51.206;4.424;2024-03-29T00:00:56;5.90;;;1.47;;
85815;SDS011;76552;51.206;4.424;2024-03-29T00:01:01;5.88;;;1.40;;
85815;SDS011;76552;51.206;4.424;2024-03-29T00:01:07;5.90;;;1.52;;
85815;SDS011;76552;51.206;4.424;2024-03-29T00:01:12;6.43;;;1.60;;
85815;SDS011;76552;51.206;4.424;2024-03-29T00:01:17;6.57;;;1.60;;
85815;SDS011;76552;51.206;4.424;2024-03-29T00:01:23;7.45;;;1.63;;
85815;SDS011;76552;51.206;4.424;2024-03-29T00:01:29;8.17;;;1.70;;
85815;SDS011;76552;51.206;4.424;2024-03-29T00:01:34;8.63;;;1.63;;
85815;SDS011;76552;51.206;4.424;2024-03-29T00:01:39;7.93;;;1.60;;
85815;SDS011;76552;51.206;4.424;2024-03-29T00:01:45;7.80;;;1.58;;
85815;SDS011;76552;51.206;4.424;2024-03-29T00:01:50;7.00;;;1.50;;
85815;SDS011;76552;51.206;4.424;2024-03-29T00:01:55;6.47;;;1.43;;
85815;SDS011;76552;51.206;4.424;2024-03-29T00:02:01;5.25;;;1.40;;
85815;SDS011;76552;51.206;4.424;2024-03-29T00:02:06;4.90;;;1.30;;
85815;SDS011;76552;51.206;4.424;2024-03-29T00:02:12;5.28;;;1.30;;
85815;SDS011;76552;51.206;4.424;2024-03-29T00:02:17;5.90;;;1.40;;
85815;SDS011;76552;51.206;4.424;2024-03-29T00:02:22;5.93;;;1.40;;
85815;SDS011;76552;51.206;4.424;2024-03-29T00:02:28;6.07;;;1.40;;
85815;SDS011;76552;51.206;4.424;2024-03-29T00:02:33;6.70;;;1.50;;
85815;SDS011;76552;51.206;4.424;2024-03-29T00:02:38;6.50;;;1.57;;
85815;SDS011;76552;51.206;4.424;2024-03-29T00:02:43;6.50;;;1.60;;
85815;SDS011;76552;51.206;4.424;2024-03-29T00:02:49;6.33;;;1.60;;
85815;SDS011;76552;51.206;4.424;2024-03-29T00:02:54;6.27;;;1.67;;
85815;SDS011;76552;51.206;4.424;2024-03-29T00:02:59;6.43;;;1.67;;
85815;SDS011;76552;51.206;4.424;2024-03-29T00:03:05;6.05;;;1.60;;
85815;SDS011;76552;51.206;4.424;2024-03-29T00:03:10;7.00;;;1.60;;
85815;SDS011;76552;51.206;4.424;2024-03-29T00:03:16;6.97;;;1.60;;
85815;SDS011;76552;51.206;4.424;2024-03-29T00:03:24;7.50;;;1.67;;
85815;SDS011;76552;51.206;4.424;2024-03-29T00:03:29;8.23;;;1.78;;
85815;SDS011;76552;51.206;4.424;2024-03-29T00:03:34;8.63;;;2.00;;
85815;SDS011;76552;51.206;4.424;2024-03-29T00:03:40;8.10;;;1.97;;
85815;SDS011;76552;51.206;4.424;2024-03-29T00:03:45;7.70;;;1.93;;
85815;SDS011;76552;51.206;4.424;2024-03-29T00:03:53;7.93;;;2.00;;
85815;SDS011;76552;51.206;4.424;2024-03-29T00:04:01;7.30;;;1.93;;
85815;SDS011;76552;51.206;4.424;2024-03-29T00:04:07;7.22;;;1.90;;
85815;SDS011;76552;51.206;4.424;2024-03-29T00:04:13;7.00;;;1.87;;
85815;SDS011;76552;51.206;4.424;2024-03-29T00:04:18;6.95;;;1.80;;
85815;SDS011;76552;51.206;4.424;2024-03-29T00:04:24;6.83;;;1.77;;
85815;SDS011;76552;51.206;4.424;2024-03-29T00:04:29;7.53;;;1.73;;
85815;SDS011;76552;51.206;4.424;2024-03-29T00:04:34;7.95;;;1.70;;
85815;SDS011;76552;51.206;4.424;2024-03-29T00:04:40;8.37;;;1.70;;
85815;SDS011;76552;51.206;4.424;2024-03-29T00:04:45;8.83;;;1.70;;
85815;SDS011;76552;51.206;4.424;2024-03-29T00:04:50;8.60;;;1.67;;
85815;SDS011;76552;51.206;4.424;2024-03-29T00:04:55;8.13;;;1.52;;
85815;SDS011;76552;51.206;4.424;2024-03-29T00:05:01;7.27;;;1.63;;
85815;SDS011;76552;51.206;4.424;2024-03-29T00:05:08;7.04;;;1.70;;
85815;SDS011;76552;51.206;4.424;2024-03-29T00:05:13;5.75;;;1.63;;
85815;SDS011;76552;51.206;4.424;2024-03-29T00:05:19;5.83;;;1.60;;
85815;SDS011;76552;51.206;4.424;2024-03-29T00:05:24;6.00;;;1.60;;
85815;SDS011;76552;51.206;4.424;2024-03-29T00:05:29;7.28;;;2.67;;
85815;SDS011;76552;51.206;4.424;2024-03-29T00:05:35;10.90;;;5.13;;
85815;SDS011;76552;51.206;4.424;2024-03-29T00:05:40;18.17;;;9.30;;
85815;SDS011;76552;51.206;4.424;2024-03-29T00:05:45;22.95;;;12.00;;
85815;SDS011;76552;51.206;4.424;2024-03-29T00:05:51;25.73;;;14.17;;
85815;SDS011;76552;51.206;4.424;2024-03-29T00:05:56;28.63;;;16.20;;
85815;SDS011;76552;51.206;4.424;2024-03-29T00:06:01;29.40;;;16.25;;
85815;SDS011;76552;51.206;4.424;2024-03-29T00:06:07;26.00;;;14.33;;
85815;SDS011;76552;51.206;4.424;2024-03-29T00:06:12;26.00;;;14.23;;
85815;SDS011;76552;51.206;4.424;2024-03-29T00:06:17;25.50;;;13.65;;
85815;SDS011;76552;51.206;4.424;2024-03-29T00:06:23;24.40;;;12.67;;
85815;SDS011;76552;51.206;4.424;2024-03-29T00:06:28;24.43;;;12.23;;
85815;SDS011;76552;51.206;4.424;2024-03-29T00:06:33;25.48;;;12.68;;
85815;SDS011;76552;51.206;4.424;2024-03-29T00:06:39;24.53;;;11.80;;
85815;SDS011;76552;51.206;4.424;2024-03-29T00:06:44;22.27;;;10.57;;
85815;SDS011;76552;51.206;4.424;2024-03-29T00:06:49;20.63;;;9.57;;
85815;SDS011;76552;51.206;4.424;2024-03-29T00:06:55;19.57;;;8.77;;
85815;SDS011;76552;51.206;4.424;2024-03-29T00:07:00;17.90;;;7.77;;
85815;SDS011;76552;51.206;4.424;2024-03-29T00:07:05;15.80;;;6.57;;
85815;SDS011;76552;51.206;4.424;2024-03-29T00:07:10;14.48;;;5.70;;
85815;SDS011;76552;51.206;4.424;2024-03-29T00:07:16;13.13;;;5.07;;
85815;SDS011;76552;51.206;4.424;2024-03-29T00:07:21;12.73;;;4.93;;
85815;SDS011;76552;51.206;4.424;2024-03-29T00:07:26;11.82;;;4.53;;
85815;SDS011;76552;51.206;4.424;2024-03-29T00:07:32;11.23;;;4.30;;
85815;SDS011;76552;51.206;4.424;2024-03-29T00:07:37;10.13;;;3.80;;
85815;SDS011;76552;51.206;4.424;2024-03-29T00:07:42;9.18;;;3.22;;
85815;SDS011;76552;51.206;4.424;2024-03-29T00:07:48;8.83;;;2.83;;
85815;SDS011;76552;51.206;4.424;2024-03-29T00:07:53;9.00;;;2.70;;
85815;SDS011;76552;51.206;4.424;2024-03-29T00:07:58;8.23;;;2.38;;
85815;SDS011;76552;51.206;4.424;2024-03-29T00:08:04;7.97;;;2.20;;
85815;SDS011;76552;51.206;4.424;2024-03-29T00:08:10;9.00;;;2.15;;
85815;SDS011;76552;51.206;4.424;2024-03-29T00:08:16;8.98;;;2.08;;
85815;SDS011;76552;51.206;4.424;2024-03-29T00:08:21;8.73;;;2.00;;
85815;SDS011;76552;51.206;4.424;2024-03-29T00:08:26;8.80;;;2.00;;
85815;SDS011;76552;51.206;4.424;2024-03-29T00:08:32;9.23;;;2.07;;
85815;SDS011;76552;51.206;4.424;2024-03-29T00:08:37;8.47;;;1.93;;
85815;SDS011;76552;51.206;4.424;2024-03-29T00:08:42;7.88;;;2.08;;
85815;SDS011;76552;51.206;4.424;2024-03-29T00:08:48;7.20;;;2.10;;
85815;SDS011;76552;51.206;4.424;2024-03-29T00:08:53;7.90;;;2.00;;
85815;SDS011;76552;51.206;4.424;2024-03-29T00:08:58;7.40;;;1.92;;
85815;SDS011;76552;51.206;4.424;2024-03-29T00:09:04;6.47;;;1.80;;
85815;SDS011;76552;51.206;4.424;2024-03-29T00:09:10;6.30;;;1.73;;
85815;SDS011;76552;51.206;4.424;2024-03-29T00:09:15;5.82;;;1.67;;
85815;SDS011;76552;51.206;4.424;2024-03-29T00:09:21;5.63;;;1.70;;
85815;SDS011;76552;51.206;4.424;2024-03-29T00:09:26;5.70;;;1.60;;
85815;SDS011;76552;51.206;4.424;2024-03-29T00:09:31;6.72;;;1.63;;
85815;SDS011;76552;51.206;4.424;2024-03-29T00:09:36;7.67;;;1.60;;
85815;SDS011;76552;51.206;4.424;2024-03-29T00:09:42;7.80;;;1.60;;
85815;SDS011;76552;51.206;4.424;2024-03-29T00:09:47;8.77;;;1.57;;
85815;SDS011;76552;51.206;4.424;2024-03-29T00:09:52;9.25;;;1.50;;
85815;SDS011;76552;51.206;4.424;2024-03-29T00:09:58;9.17;;;1.53;;
85815;SDS011;76552;51.206;4.424;2024-03-29T00:10:03;8.60;;;1.60;;
85815;SDS011;76552;51.206;4.424;2024-03-29T00:10:09;7.82;;;1.55;;
85815;SDS011;76552;51.206;4.424;2024-03-29T00:10:14;7.75;;;1.52;;
85815;SDS011;76552;51.206;4.424;2024-03-29T00:10:19;6.67;;;1.50;;
85815;SDS011;76552;51.206;4.424;2024-03-29T00:10:25;5.77;;;1.50;;
85815;SDS011;76552;51.206;4.424;2024-03-29T00:10:30;5.72;;;1.50;;
85815;SDS011;76552;51.206;4.424;2024-03-29T00:10:36;5.67;;;1.50;;
85815;SDS011;76552;51.206;4.424;2024-03-29T00:10:41;5.90;;;1.52;;
85815;SDS011;76552;51.206;4.424;2024-03-29T00:10:47;5.77;;;1.53;;
85815;SDS011;76552;51.206;4.424;2024-03-29T00:10:52;6.70;;;1.67;;
85815;SDS011;76552;51.206;4.424;2024-03-29T00:10:57;6.60;;;1.60;;
85815;SDS011;76552;51.206;4.424;2024-03-29T00:11:03;7.37;;;1.53;;
85815;SDS011;76552;51.206;4.424;2024-03-29T00:11:08;8.48;;;1.60;;
85815;SDS011;76552;51.206;4.424;2024-03-29T00:11:14;8.47;;;1.60;;
85815;SDS011;76552;51.206;4.424;2024-03-29T00:11:19;8.20;;;1.67;;
85815;SDS011;76552;51.206;4.424;2024-03-29T00:11:25;8.23;;;1.70;;
85815;SDS011;76552;51.206;4.424;2024-03-29T00:11:30;7.83;;;1.67;;
85815;SDS011;76552;51.206;4.424;2024-03-29T00:11:36;6.83;;;1.63;;
85815;SDS011;76552;51.206;4.424;2024-03-29T00:11:41;5.97;;;1.63;;
85815;SDS011;76552;51.206;4.424;2024-03-29T00:11:46;6.13;;;1.60;;
85815;SDS011;76552;51.206;4.424;2024-03-29T00:11:52;5.57;;;1.50;;
85815;SDS011;76552;51.206;4.424;2024-03-29T00:11:58;5.47;;;1.50;;
85815;SDS011;76552;51.206;4.424;2024-03-29T00:12:03;5.23;;;1.50;;
85815;SDS011;76552;51.206;4.424;2024-03-29T00:12:08;5.35;;;1.42;;
85815;SDS011;76552;51.206;4.424;2024-03-29T00:12:14;6.00;;;1.50;;
85815;SDS011;76552;51.206;4.424;2024-03-29T00:12:19;6.40;;;1.50;;
85815;SDS011;76552;51.206;4.424;2024-03-29T00:12:24;7.20;;;1.58;;
85815;SDS011;76552;51.206;4.424;2024-03-29T00:12:29;7.23;;;1.50;;
85815;SDS011;76552;51.206;4.424;2024-03-29T00:12:35;7.27;;;1.53;;
85815;SDS011;76552;51.206;4.424;2024-03-29T00:12:40;6.80;;;1.52;;
85815;SDS011;76552;51.206;4.424;2024-03-29T00:12:45;5.73;;;1.50;;
85815;SDS011;76552;51.206;4.424;2024-03-29T00:12:51;5.30;;;1.47;;
85815;SDS011;76552;51.206;4.424;2024-03-29T00:12:56;4.85;;;1.45;;
85815;SDS011;76552;51.206;4.424;2024-03-29T00:13:01;5.77;;;1.60;;
85815;SDS011;76552;51.206;4.424;2024-03-29T00:13:07;5.80;;;1.60;;
85815;SDS011;76552;51.206;4.424;2024-03-29T00:13:12;6.07;;;1.60;;
85815;SDS011;76552;51.206;4.424;2024-03-29T00:13:17;6.78;;;1.67;;
85815;SDS011;76552;51.206;4.424;2024-03-29T00:13:22;7.13;;;1.73;;
85815;SDS011;76552;51.206;4.424;2024-03-29T00:13:28;7.27;;;1.73;;
85815;SDS011;76552;51.206;4.424;2024-03-29T00:13:33;7.30;;;1.80;;
85815;SDS011;76552;51.206;4.424;2024-03-29T00:13:40;7.82;;;1.88;;
85815;SDS011;76552;51.206;4.424;2024-03-29T00:13:45;7.93;;;2.00;;
85815;SDS011;76552;51.206;4.424;2024-03-29T00:13:50;7.53;;;1.90;;
85815;SDS011;76552;51.206;4.424;2024-03-29T00:13:55;7.10;;;1.90;;
85815;SDS011;76552;51.206;4.424;2024-03-29T00:14:01;6.53;;;1.77;;
85815;SDS011;76552;51.206;4.424;2024-03-29T00:14:06;6.20;;;1.70;;
85815;SDS011;76552;51.206;4.424;2024-03-29T00:14:11;5.90;;;1.70;;
85815;SDS011;76552;51.206;4.424;2024-03-29T00:14:17;5.93;;;1.73;;
85815;SDS011;76552;51.206;4.424;2024-03-29T00:14:22;6.32;;;1.90;;
85815;SDS011;76552;51.206;4.424;2024-03-29T00:14:27;6.53;;;2.00;;
85815;SDS011;76552;51.206;4.424;2024-03-29T00:14:33;7.03;;;2.10;;
85815;SDS011;76552;51.206;4.424;2024-03-29T00:14:38;7.13;;;2.10;;
85815;SDS011;76552;51.206;4.424;2024-03-29T00:14:44;7.73;;;2.10;;
85815;SDS011;76552;51.206;4.424;2024-03-29T00:14:53;9.10;;;2.20;;
85815;SDS011;76552;51.206;4.424;2024-03-29T00:14:59;9.44;;;2.16;;
85815;SDS011;76552;51.206;4.424;2024-03-29T00:15:04;9.77;;;2.10;;
85815;SDS011;76552;51.206;4.424;2024-03-29T00:15:10;10.23;;;2.07;;
85815;SDS011;76552;51.206;4.424;2024-03-29T00:15:15;9.73;;;1.98;;
85815;SDS011;76552;51.206;4.424;2024-03-29T00:15:20;8.03;;;1.70;;
85815;SDS011;76552;51.206;4.424;2024-03-29T00:15:26;7.93;;;1.70;;
85815;SDS011;76552;51.206;4.424;2024-03-29T00:15:31;7.40;;;1.90;;
85815;SDS011;76552;51.206;4.424;2024-03-29T00:15:37;7.17;;;1.80;;
85815;SDS011;76552;51.206;4.424;2024-03-29T00:15:42;6.80;;;1.90;;
85815;SDS011;76552;51.206;4.424;2024-03-29T00:15:50;6.50;;;1.90;;
85815;SDS011;76552;51.206;4.424;2024-03-29T00:15:55;7.50;;;2.00;;
85815;SDS011;76552;51.206;4.424;2024-03-29T00:16:00;7.17;;;1.73;;
85815;SDS011;76552;51.206;4.424;2024-03-29T00:16:06;7.07;;;1.60;;
85815;SDS011;76552;51.206;4.424;2024-03-29T00:16:11;7.53;;;1.60;;
85815;SDS011;76552;51.206;4.424;2024-03-29T00:16:17;7.55;;;1.60;;
85815;SDS011;76552;51.206;4.424;2024-03-29T00:16:22;7.47;;;1.53;;
85815;SDS011;76552;51.206;4.424;2024-03-29T00:16:33;7.62;;;1.48;;
85815;SDS011;76552;51.206;4.424;2024-03-29T00:16:38;7.70;;;1.50;;
85815;SDS011;76552;51.206;4.424;2024-03-29T00:16:43;7.30;;;1.50;;
85815;SDS011;76552;51.206;4.424;2024-03-29T00:16:49;7.40;;;1.60;;
85815;SDS011;76552;51.206;4.424;2024-03-29T00:16:54;7.00;;;1.55;;
85815;SDS011;76552;51.206;4.424;2024-03-29T00:16:59;6.67;;;1.60;;
85815;SDS011;76552;51.206;4.424;2024-03-29T00:17:05;6.63;;;1.60;;
85815;SDS011;76552;51.206;4.424;2024-03-29T00:17:10;6.20;;;1.55;;
85815;SDS011;76552;51.206;4.424;2024-03-29T00:17:15;6.97;;;1.50;;
85815;SDS011;76552;51.206;4.424;2024-03-29T00:17:20;7.17;;;1.57;;
85815;SDS011;76552;51.206;4.424;2024-03-29T00:17:26;7.50;;;1.60;;
85815;SDS011;76552;51.206;4.424;2024-03-29T00:17:31;7.55;;;1.70;;
85815;SDS011;76552;51.206;4.424;2024-03-29T00:17:36;8.00;;;1.77;;
85815;SDS011;76552;51.206;4.424;2024-03-29T00:17:42;8.83;;;1.90;;
85815;SDS011;76552;51.206;4.424;2024-03-29T00:17:47;8.35;;;1.90;;
85815;SDS011;76552;51.206;4.424;2024-03-29T00:17:52;8.30;;;1.90;;
85815;SDS011;76552;51.206;4.424;2024-03-29T00:17:58;8.37;;;1.90;;
85815;SDS011;76552;51.206;4.424;2024-03-29T00:18:03;8.68;;;1.90;;
85815;SDS011;76552;51.206;4.424;2024-03-29T00:18:09;8.37;;;1.77;;
85815;SDS011;76552;51.206;4.424;2024-03-29T00:18:14;8.02;;;1.80;;
85815;SDS011;76552;51.206;4.424;2024-03-29T00:18:19;8.03;;;1.80;;
85815;SDS011;76552;51.206;4.424;2024-03-29T00:18:24;7.83;;;1.70;;
85815;SDS011;76552;51.206;4.424;2024-03-29T00:18:30;7.30;;;1.67;;
85815;SDS011;76552;51.206;4.424;2024-03-29T00:18:35;6.90;;;1.70;;
85815;SDS011;76552;51.206;4.424;2024-03-29T00:18:40;6.90;;;1.63;;
85815;SDS011;76552;51.206;4.424;2024-03-29T00:18:46;7.00;;;1.60;;
85815;SDS011;76552;51.206;4.424;2024-03-29T00:18:51;6.70;;;1.60;;
85815;SDS011;76552;51.206;4.424;2024-03-29T00:18:57;6.70;;;1.60;;
85815;SDS011;76552;51.206;4.424;2024-03-29T00:19:02;7.20;;;1.60;;
85815;SDS011;76552;51.206;4.424;2024-03-29T00:19:07;6.83;;;1.57;;
85815;SDS011;76552;51.206;4.424;2024-03-29T00:19:13;7.05;;;1.60;;
85815;SDS011;76552;51.206;4.424;2024-03-29T00:19:18;7.33;;;1.63;;
85815;SDS011;76552;51.206;4.424;2024-03-29T00:19:24;7.65;;;1.60;;
85815;SDS011;76552;51.206;4.424;2024-03-29T00:19:29;7.27;;;1.60;;
85815;SDS011;76552;51.206;4.424;2024-03-29T00:19:34;7.50;;;1.70;;
85815;SDS011;76552;51.206;4.424;2024-03-29T00:19:40;7.65;;;1.75;;
85815;SDS011;76552;51.206;4.424;2024-03-29T00:19:45;7.30;;;1.80;;
85815;SDS011;76552;51.206;4.424;2024-03-29T00:19:51;7.55;;;1.80;;
85815;SDS011;76552;51.206;4.424;2024-03-29T00:19:56;7.57;;;1.90;;
85815;SDS011;76552;51.206;4.424;2024-03-29T00:20:02;7.83;;;2.03;;
85815;SDS011;76552;51.206;4.424;2024-03-29T00:20:08;7.90;;;1.84;;
85815;SDS011;76552;51.206;4.424;2024-03-29T00:20:14;8.60;;;1.80;;
85815;SDS011;76552;51.206;4.424;2024-03-29T00:20:20;8.27;;;1.70;;
85815;SDS011;76552;51.206;4.424;2024-03-29T00:20:26;8.40;;;1.65;;
85815;SDS011;76552;51.206;4.424;2024-03-29T00:20:34;8.67;;;1.60;;
85815;SDS011;76552;51.206;4.424;2024-03-29T00:20:39;7.70;;;1.53;;
85815;SDS011;76552;51.206;4.424;2024-03-29T00:20:44;7.17;;;1.53;;
85815;SDS011;76552;51.206;4.424;2024-03-29T00:20:50;7.40;;;1.67;;
85815;SDS011;76552;51.206;4.424;2024-03-29T00:20:55;7.03;;;1.70;;
85815;SDS011;76552;51.206;4.424;2024-03-29T00:21:00;6.40;;;1.60;;
85815;SDS011;76552;51.206;4.424;2024-03-29T00:21:05;6.53;;;1.70;;
85815;SDS011;76552;51.206;4.424;2024-03-29T00:21:11;6.70;;;1.70;;
85815;SDS011;76552;51.206;4.424;2024-03-29T00:21:16;6.77;;;1.83;;
85815;SDS011;76552;51.206;4.424;2024-03-29T00:21:22;6.80;;;1.80;;
85815;SDS011;76552;51.206;4.424;2024-03-29T00:21:27;6.80;;;1.90;;
85815;SDS011;76552;51.206;4.424;2024-03-29T00:21:32;7.07;;;1.90;;
85815;SDS011;76552;51.206;4.424;2024-03-29T00:21:37;7.07;;;1.80;;
85815;SDS011;76552;51.206;4.424;2024-03-29T00:21:43;6.93;;;1.70;;
85815;SDS011;76552;51.206;4.424;2024-03-29T00:21:48;7.30;;;1.67;;
85815;SDS011;76552;51.206;4.424;2024-03-29T00:21:53;7.10;;;1.70;;
85815;SDS011;76552;51.206;4.424;2024-03-29T00:21:59;8.00;;;1.67;;
85815;SDS011;76552;51.206;4.424;2024-03-29T00:22:04;8.13;;;1.70;;
85815;SDS011;76552;51.206;4.424;2024-03-29T00:22:09;8.03;;;1.70;;
85815;SDS011;76552;51.206;4.424;2024-03-29T00:22:15;7.45;;;1.65;;
85815;SDS011;76552;51.206;4.424;2024-03-29T00:22:20;6.90;;;1.50;;
85815;SDS011;76552;51.206;4.424;2024-03-29T00:22:25;6.53;;;1.40;;
85815;SDS011;76552;51.206;4.424;2024-03-29T00:22:30;5.70;;;1.40;;
85815;SDS011;76552;51.206;4.424;2024-03-29T00:22:36;6.25;;;1.50;;
85815;SDS011;76552;51.206;4.424;2024-03-29T00:22:41;6.27;;;1.50;;
85815;SDS011;76552;51.206;4.424;2024-03-29T00:22:46;6.90;;;1.63;;
85815;SDS011;76552;51.206;4.424;2024-03-29T00:22:52;7.32;;;1.70;;
85815;SDS011;76552;51.206;4.424;2024-03-29T00:22:57;7.80;;;1.70;;
85815;SDS011;76552;51.206;4.424;2024-03-29T00:23:02;7.80;;;1.73;;
85815;SDS011;76552;51.206;4.424;2024-03-29T00:23:08;7.65;;;1.70;;
85815;SDS011;76552;51.206;4.424;2024-03-29T00:23:13;7.73;;;1.70;;
85815;SDS011;76552;51.206;4.424;2024-03-29T00:23:18;7.20;;;1.63;;
85815;SDS011;76552;51.206;4.424;2024-03-29T00:23:24;7.13;;;1.70;;
85815;SDS011;76552;51.206;4.424;2024-03-29T00:23:29;6.63;;;1.70;;
85815;SDS011;76552;51.206;4.424;2024-03-29T00:23:34;6.07;;;1.63;;
85815;SDS011;76552;51.206;4.424;2024-03-29T00:23:40;6.20;;;1.58;;
85815;SDS011;76552;51.206;4.424;2024-03-29T00:23:45;6.40;;;1.67;;
85815;SDS011;76552;51.206;4.424;2024-03-29T00:23:51;6.57;;;1.60;;
85815;SDS011;76552;51.206;4.424;2024-03-29T00:23:57;6.72;;;1.67;;
85815;SDS011;76552;51.206;4.424;2024-03-29T00:24:02;6.83;;;1.70;;
85815;SDS011;76552;51.206;4.424;2024-03-29T00:24:08;6.97;;;1.90;;
85815;SDS011;76552;51.206;4.424;2024-03-29T00:24:13;7.07;;;1.83;;
85815;SDS011;76552;51.206;4.424;2024-03-29T00:24:18;7.50;;;1.90;;
85815;SDS011;76552;51.206;4.424;2024-03-29T00:24:24;7.40;;;2.00;;
85815;SDS011;76552;51.206;4.424;2024-03-29T00:24:29;7.63;;;1.93;;
85815;SDS011;76552;51.206;4.424;2024-03-29T00:24:34;7.70;;;1.87;;
85815;SDS011;76552;51.206;4.424;2024-03-29T00:24:39;7.13;;;1.70;;
85815;SDS011;76552;51.206;4.424;2024-03-29T00:24:45;7.43;;;1.70;;
85815;SDS011;76552;51.206;4.424;2024-03-29T00:24:50;7.40;;;1.70;;
85815;SDS011;76552;51.206;4.424;2024-03-29T00:24:55;7.67;;;1.63;;
85815;SDS011;76552;51.206;4.424;2024-03-29T00:25:00;7.47;;;1.50;;
85815;SDS011;76552;51.206;4.424;2024-03-29T00:25:06;7.40;;;1.60;;
85815;SDS011;76552;51.206;4.424;2024-03-29T00:25:11;7.47;;;1.60;;
85815;SDS011;76552;51.206;4.424;2024-03-29T00:25:17;6.90;;;1.50;;
85815;SDS011;76552;51.206;4.424;2024-03-29T00:25:22;6.33;;;1.43;;
85815;SDS011;76552;51.206;4.424;2024-03-29T00:25:28;5.60;;;1.40;;
85815;SDS011;76552;51.206;4.424;2024-03-29T00:25:33;5.73;;;1.33;;
85815;SDS011;76552;51.206;4.424;2024-03-29T00:25:38;5.33;;;1.30;;
85815;SDS011;76552;51.206;4.424;2024-03-29T00:25:43;5.20;;;1.30;;
85815;SDS011;76552;51.206;4.424;2024-03-29T00:25:49;5.07;;;1.33;;
85815;SDS011;76552;51.206;4.424;2024-03-29T00:25:54;5.70;;;1.40;;
85815;SDS011;76552;51.206;4.424;2024-03-29T00:26:03;5.74;;;1.50;;
85815;SDS011;76552;51.206;4.424;2024-03-29T00:26:08;6.77;;;1.60;;
85815;SDS011;76552;51.206;4.424;2024-03-29T00:26:13;6.93;;;1.65;;
85815;SDS011;76552;51.206;4.424;2024-03-29T00:26:19;7.47;;;1.80;;
85815;SDS011;76552;51.206;4.424;2024-03-29T00:26:24;7.23;;;1.77;;
85815;SDS011;76552;51.206;4.424;2024-03-29T00:26:29;7.15;;;1.75;;
85815;SDS011;76552;51.206;4.424;2024-03-29T00:26:35;7.30;;;1.80;;
85815;SDS011;76552;51.206;4.424;2024-03-29T00:26:40;6.67;;;1.77;;
85815;SDS011;76552;51.206;4.424;2024-03-29T00:26:45;6.73;;;1.73;;
85815;SDS011;76552;51.206;4.424;2024-03-29T00:26:50;6.38;;;1.67;;
85815;SDS011;76552;51.206;4.424;2024-03-29T00:26:56;6.43;;;1.60;;
85815;SDS011;76552;51.206;4.424;2024-03-29T00:27:01;6.73;;;1.60;;
85815;SDS011;76552;51.206;4.424;2024-03-29T00:27:08;6.78;;;1.64;;
85815;SDS011;76552;51.206;4.424;2024-03-29T00:27:13;6.37;;;1.67;;
85815;SDS011;76552;51.206;4.424;2024-03-29T00:27:18;6.50;;;1.60;;
85815;SDS011;76552;51.206;4.424;2024-03-29T00:27:23;6.60;;;1.67;;
85815;SDS011;76552;51.206;4.424;2024-03-29T00:27:31;6.22;;;1.70;;
85815;SDS011;76552;51.206;4.424;2024-03-29T00:27:37;6.15;;;1.67;;
85815;SDS011;76552;51.206;4.424;2024-03-29T00:27:43;6.50;;;1.73;;
85815;SDS011;76552;51.206;4.424;2024-03-29T00:27:53;7.21;;;1.90;;
85815;SDS011;76552;51.206;4.424;2024-03-29T00:27:59;7.03;;;1.80;;
85815;SDS011;76552;51.206;4.424;2024-03-29T00:28:05;7.30;;;1.84;;
85815;SDS011;76552;51.206;4.424;2024-03-29T00:28:11;7.53;;;1.80;;
85815;SDS011;76552;51.206;4.424;2024-03-29T00:28:16;7.43;;;1.67;;
85815;SDS011;76552;51.206;4.424;2024-03-29T00:28:21;7.35;;;1.60;;
85815;SDS011;76552;51.206;4.424;2024-03-29T00:28:27;7.43;;;1.60;;
85815;SDS011;76552;51.206;4.424;2024-03-29T00:28:32;7.67;;;1.60;;
85815;SDS011;76552;51.206;4.424;2024-03-29T00:28:38;7.43;;;1.50;;
85815;SDS011;76552;51.206;4.424;2024-03-29T00:28:43;6.90;;;1.50;;
85815;SDS011;76552;51.206;4.424;2024-03-29T00:28:48;6.37;;;1.40;;
85815;SDS011;76552;51.206;4.424;2024-03-29T00:28:54;6.40;;;1.40;;
85815;SDS011;76552;51.206;4.424;2024-03-29T00:29:00;6.73;;;1.40;;
85815;SDS011;76552;51.206;4.424;2024-03-29T00:29:05;6.45;;;1.40;;
85815;SDS011;76552;51.206;4.424;2024-03-29T00:29:11;7.07;;;1.40;;
85815;SDS011;76552;51.206;4.424;2024-03-29T00:29:16;7.40;;;1.43;;
85815;SDS011;76552;51.206;4.424;2024-03-29T00:29:21;7.28;;;1.52;;
85815;SDS011;76552;51.206;4.424;2024-03-29T00:29:27;6.97;;;1.60;;
85815;SDS011;76552;51.206;4.424;2024-03-29T00:29:32;6.60;;;1.65;;
85815;SDS011;76552;51.206;4.424;2024-03-29T00:29:38;6.73;;;1.73;;
85815;SDS011;76552;51.206;4.424;2024-03-29T00:29:43;6.97;;;1.80;;
85815;SDS011;76552;51.206;4.424;2024-03-29T00:29:51;6.83;;;1.70;;
85815;SDS011;76552;51.206;4.424;2024-03-29T00:29:59;7.07;;;1.70;;
85815;SDS011;76552;51.206;4.424;2024-03-29T00:30:04;6.95;;;1.63;;
85815;SDS011;76552;51.206;4.424;2024-03-29T00:30:13;6.58;;;1.55;;
85815;SDS011;76552;51.206;4.424;2024-03-29T00:30:18;6.40;;;1.60;;
85815;SDS011;76552;51.206;4.424;2024-03-29T00:30:24;6.27;;;1.57;;
85815;SDS011;76552;51.206;4.424;2024-03-29T00:30:29;5.93;;;1.50;;
85815;SDS011;76552;51.206;4.424;2024-03-29T00:30:34;6.03;;;1.50;;
85815;SDS011;76552;51.206;4.424;2024-03-29T00:30:39;5.57;;;1.40;;
85815;SDS011;76552;51.206;4.424;2024-03-29T00:30:45;5.40;;;1.40;;
85815;SDS011;76552;51.206;4.424;2024-03-29T00:30:50;5.55;;;1.40;;
85815;SDS011;76552;51.206;4.424;2024-03-29T00:30:55;5.80;;;1.47;;
85815;SDS011;76552;51.206;4.424;2024-03-29T00:31:01;6.70;;;1.53;;
85815;SDS011;76552;51.206;4.424;2024-03-29T00:31:06;7.23;;;1.57;;
85815;SDS011;76552;51.206;4.424;2024-03-29T00:31:12;7.82;;;1.70;;
85815;SDS011;76552;51.206;4.424;2024-03-29T00:31:17;8.03;;;1.70;;
85815;SDS011;76552;51.206;4.424;2024-03-29T00:31:22;8.05;;;1.77;;
85815;SDS011;76552;51.206;4.424;2024-03-29T00:31:28;8.10;;;1.70;;
85815;SDS011;76552;51.206;4.424;2024-03-29T00:31:33;7.10;;;1.70;;
85815;SDS011;76552;51.206;4.424;2024-03-29T00:31:38;6.30;;;1.65;;
85815;SDS011;76552;51.206;4.424;2024-03-29T00:31:43;6.10;;;1.60;;
85815;SDS011;76552;51.206;4.424;2024-03-29T00:31:49;5.97;;;1.60;;
85815;SDS011;76552;51.206;4.424;2024-03-29T00:31:54;6.17;;;1.60;;
85815;SDS011;76552;51.206;4.424;2024-03-29T00:31:59;6.00;;;1.52;;
85815;SDS011;76552;51.206;4.424;2024-03-29T00:32:05;6.40;;;1.53;;
85815;SDS011;76552;51.206;4.424;2024-03-29T00:32:10;6.65;;;1.60;;
85815;SDS011;76552;51.206;4.424;2024-03-29T00:32:15;7.13;;;1.57;;
85815;SDS011;76552;51.206;4.424;2024-03-29T00:32:21;7.27;;;1.53;;
85815;SDS011;76552;51.206;4.424;2024-03-29T00:32:29;6.71;;;1.50;;
85815;SDS011;76552;51.206;4.424;2024-03-29T00:32:34;6.73;;;1.53;;
85815;SDS011;76552;51.206;4.424;2024-03-29T00:32:40;6.57;;;1.50;;
85815;SDS011;76552;51.206;4.424;2024-03-29T00:32:45;5.97;;;1.50;;
85815;SDS011;76552;51.206;4.424;2024-03-29T00:32:50;5.63;;;1.40;;
85815;SDS011;76552;51.206;4.424;2024-03-29T00:32:56;5.47;;;1.50;;
85815;SDS011;76552;51.206;4.424;2024-03-29T00:33:01;5.53;;;1.60;;
85815;SDS011;76552;51.206;4.424;2024-03-29T00:33:07;5.23;;;1.60;;
85815;SDS011;76552;51.206;4.424;2024-03-29T00:33:12;5.47;;;1.60;;
85815;SDS011;76552;51.206;4.424;2024-03-29T00:33:17;5.87;;;1.63;;